createdAt,value
2018-04-16T00:08:33.652Z,0
2018-04-16T00:18:43.803Z,0
2018-04-16T00:28:33.600Z,0
2018-04-16T00:38:33.545Z,0
2018-04-16T00:48:33.644Z,0
2018-04-16T00:58:33.627Z,0
2018-04-16T01:08:33.573Z,0
2018-04-16T01:18:33.622Z,0
2018-04-16T01:28:33.587Z,0
2018-04-16T01:38:33.632Z,0
2018-04-16T01:48:33.578Z,0
2018-04-16T01:58:33.674Z,0
2018-04-16T02:08:33.645Z,0
2018-04-16T02:18:33.720Z,0
2018-04-16T02:28:33.646Z,0
2018-04-16T02:38:33.714Z,0
2018-04-16T02:48:33.657Z,0
2018-04-16T02:58:33.784Z,0
2018-04-16T03:08:33.709Z,0
2018-04-16T03:18:33.752Z,0
2018-04-16T03:28:33.654Z,0
2018-04-16T03:38:33.801Z,0
2018-04-16T03:48:33.820Z,0
2018-04-16T03:58:33.822Z,0
2018-04-16T04:08:33.729Z,0
2018-04-16T04:18:33.792Z,0
2018-04-16T04:28:33.921Z,0
2018-04-16T04:38:33.793Z,5
2018-04-16T04:48:33.817Z,10
2018-04-16T04:58:33.782Z,15
2018-04-16T05:08:33.822Z,25
2018-04-16T05:18:33.822Z,35
2018-04-16T05:28:33.829Z,50
2018-04-16T05:38:33.874Z,65
2018-04-16T05:48:33.912Z,85
2018-04-16T05:58:34.039Z,135
2018-04-16T06:08:34.074Z,145
2018-04-16T06:18:34.447Z,155
2018-04-16T06:28:33.860Z,160
2018-04-16T06:38:33.974Z,200
2018-04-16T06:48:34.854Z,200
2018-04-16T06:58:34.092Z,215
2018-04-16T07:08:34.172Z,175
2018-04-16T07:18:46.431Z,195
2018-04-16T07:28:33.939Z,215
2018-04-16T07:38:33.933Z,225
2018-04-16T07:48:34.222Z,295
2018-04-16T07:58:34.019Z,290
2018-04-16T08:08:34.118Z,280
2018-04-16T08:18:34.962Z,185
2018-04-16T08:28:33.916Z,285
2018-04-16T08:38:33.887Z,185
2018-04-16T08:48:33.926Z,175
2018-04-16T08:58:33.937Z,190
2018-04-16T09:08:35.455Z,205
2018-04-16T09:18:34.232Z,215
2018-04-16T09:28:33.972Z,205
2018-04-16T09:38:33.948Z,225
2018-04-16T09:48:33.938Z,170
2018-04-16T09:58:33.994Z,230
2018-04-16T10:08:33.917Z,245
2018-04-16T10:18:33.941Z,240
2018-04-16T10:28:33.916Z,220
2018-04-16T10:38:33.904Z,170
2018-04-16T10:48:33.937Z,195
2018-04-16T10:58:33.906Z,215
2018-04-16T11:08:33.983Z,250
2018-04-16T11:18:33.975Z,195
2018-04-16T11:28:33.964Z,170
2018-04-16T11:38:33.891Z,190
2018-04-16T11:48:33.952Z,165
2018-04-16T11:58:33.955Z,180
2018-04-16T12:08:34.531Z,125
2018-04-16T12:18:33.941Z,165
2018-04-16T12:28:34.011Z,145
2018-04-16T12:38:33.925Z,200
2018-04-16T12:48:33.940Z,195
2018-04-16T12:58:33.971Z,205
2018-04-16T13:08:33.928Z,180
2018-04-16T13:18:34.094Z,155
2018-04-16T13:28:34.128Z,230
2018-04-16T13:38:34.085Z,180
2018-04-16T13:48:34.034Z,160
2018-04-16T13:58:34.357Z,170
2018-04-16T14:08:34.044Z,160
2018-04-16T14:18:34.045Z,170
2018-04-16T14:28:34.641Z,150
2018-04-16T14:38:33.962Z,150
2018-04-16T14:48:34.144Z,140
2018-04-16T14:58:34.043Z,115
2018-04-16T15:08:34.006Z,155
2018-04-16T15:18:34.919Z,100
2018-04-16T15:28:34.146Z,145
2018-04-16T15:38:34.022Z,120
2018-04-16T15:48:34.007Z,135
2018-04-16T15:58:49.219Z,110
2018-04-16T16:08:34.771Z,95
2018-04-16T16:18:34.087Z,90
2018-04-16T16:28:34.368Z,85
2018-04-16T16:38:33.922Z,75
2018-04-16T16:48:34.034Z,70
2018-04-16T16:58:33.981Z,65
2018-04-16T17:08:33.972Z,60
2018-04-16T17:18:34.069Z,55
2018-04-16T17:28:33.977Z,45
2018-04-16T17:38:33.988Z,40
2018-04-16T17:48:33.998Z,35
2018-04-16T17:58:33.978Z,20
2018-04-16T18:08:34.016Z,15
2018-04-16T18:18:34.020Z,10
2018-04-16T18:28:33.949Z,5
2018-04-16T18:38:33.966Z,0
2018-04-16T18:48:34.521Z,0
2018-04-16T18:58:34.151Z,0
2018-04-16T19:08:33.996Z,0
2018-04-16T19:18:34.043Z,0
2018-04-16T19:28:34.146Z,0
2018-04-16T19:38:34.038Z,0
2018-04-16T19:48:34.079Z,0
2018-04-16T19:58:34.460Z,0
2018-04-16T20:08:35.143Z,0
2018-04-16T20:18:34.059Z,0
2018-04-16T20:28:34.507Z,0
2018-04-16T20:38:34.618Z,0
2018-04-16T20:48:38.406Z,0
2018-04-16T20:58:36.132Z,0
2018-04-16T21:08:34.450Z,0
2018-04-16T21:18:46.812Z,0
2018-04-16T21:28:49.528Z,0
2018-04-16T21:38:34.859Z,0
2018-04-16T21:48:42.609Z,0
2018-04-16T21:58:46.391Z,0
2018-04-16T22:08:34.369Z,0
2018-04-16T22:18:34.346Z,0
2018-04-16T22:28:34.957Z,0
2018-04-16T22:38:35.315Z,0
2018-04-16T22:48:34.232Z,0
2018-04-16T22:58:34.980Z,0
2018-04-16T23:08:34.992Z,0
2018-04-16T23:18:34.392Z,0
2018-04-16T23:28:34.294Z,0
2018-04-16T23:38:34.215Z,0
2018-04-16T23:48:34.346Z,0
2018-04-16T23:58:34.283Z,0
